Share

Ellsworth, KS

Wilson (KKSWILSO2) Elev 1693 ft | 38.82 °N, 98.47 °W | Change Station

Current weather conditions updated 26 minutes ago

Clear
Clear
43.3 °F
Feels Like 40 °F
N
6.2
Wind Variable Wind from SSE
Gusts 6.2 mph
Sunrise 6:53 AM
Sunset 8:11 PM
Moon Waning Gibbous

Tomorrow is forecast to be Much Warmer than today.

Pressure 30.26 in
Visibility 10.0 miles
Clouds Clear
Windchill 40 °F
Dew Point Not available.
Humidity Not available.
Rainfall 0.00 in
Snow Depth Not available.
UV 0 out of 16
Pollen 9.00 out of 12
Air Quality Not available.
Flu Activity Sporadic
METAR KRSL 180353Z AUTO 17009KT 10SM CLR 04/M02 A3022 RMK AO2 SLP246 T00441017 TSNO

More Conditions Fewer Conditions

Pressure 30.26 in
Visibility 10.0 miles
Clouds Clear
Windchill 40 °F
Dew Point Not available.
Humidity Not available.
Rainfall 0.00 in
Snow Depth Not available.
UV 0 out of 16
Pollen 9.00 out of 12
Air Quality Not available.
Flu Activity Sporadic
METAR KRSL 180353Z AUTO 17009KT 10SM CLR 04/M02 A3022 RMK AO2 SLP246 T00441017 TSNO

More Conditions Fewer Conditions

10-Day Forecast

Almanac

Astronomy

Apr. 17, 2014 Rise Set
Actual Time 6:53 AM CDT 8:11 PM CDT
Civil Twilight 6:26 AM CDT 8:39 PM CDT
Nautical Twilight 5:53 AM CDT 9:12 PM CDT
Astronomical Twilight 5:18 AM CDT 9:47 PM CDT
Moon 10:57 PM CDT (4/17) 8:27 AM CDT (4/17)
Length of Visible Light 14h 13m
Length of Day
13h 18m
Tomorrow will be 2m 23s longer.
Waning Gibbous, 90% of the Moon is Illuminated
Apr 18
Waning Gibbous
Apr 22
Last Quarter
Apr 29
New
May 6
First Quarter
May 14
Full

Today's Extremes

State Highs State Lows

Community

  • SUNRISE THROUGH THE TREES.
    SUNRISE THROUGH THE TREES.
  • Dog Wood Blossoms
    Dog Wood Blossoms
  • Morning Light
    Morning Light
  • New Day
    New Day
  • Lake Michigan Sunrise
    Lake Michigan Sunrise

WunderPhotos

Upload Photos

1,702,253 photos uploaded!

WunderBlogs® & News

Nearby

Snow Depth

Station Depth Elevation
No new snow has been reported.

Coastal Water Temperatures

Place Temperature
No Stations Reporting

Earthquake Activity

City Distance Mag. Time & Date
Medford, Oklahoma 131 miles 3.0 5:38 PM CDT
2014-04-12
Minimum magnitude displayed is 2.5.

Nearby Weather Stations

Station Location Temp. Windchill Dew Point Humidity Wind Precip. Elev Updated Type
Wilson, Wilson, KS 43.3 °F 40 °F 43 °F - SSE  at  6.2 mph 0.00 in / hr 1693 ft 11:00 PM CDT Rapid Fire

Show More Stations Show Fewer Stations

What do you think?

We're not finished. Please let us know what you like, what you don't like, and what you are still missing.